sensor_id;sensor_type;location;lat;lon;timestamp;P1;durP1;ratioP1;P2;durP2;ratioP2
19414;SDS011;9843;48.882;12.592;2023-04-03T00:00:44;5.70;;;5.00;;
19414;SDS011;9843;48.882;12.592;2023-04-03T00:03:11;6.00;;;5.60;;
19414;SDS011;9843;48.882;12.592;2023-04-03T00:05:38;6.33;;;5.10;;
19414;SDS011;9843;48.882;12.592;2023-04-03T00:08:05;5.97;;;4.90;;
19414;SDS011;9843;48.882;12.592;2023-04-03T00:10:35;6.73;;;5.10;;
19414;SDS011;9843;48.882;12.592;2023-04-03T00:13:03;6.13;;;5.53;;
19414;SDS011;9843;48.882;12.592;2023-04-03T00:15:30;6.03;;;5.43;;
19414;SDS011;9843;48.882;12.592;2023-04-03T00:17:57;6.83;;;5.17;;
19414;SDS011;9843;48.882;12.592;2023-04-03T00:20:24;9.33;;;4.43;;
19414;SDS011;9843;48.882;12.592;2023-04-03T00:22:52;6.27;;;4.77;;
19414;SDS011;9843;48.882;12.592;2023-04-03T00:25:19;5.33;;;4.93;;
19414;SDS011;9843;48.882;12.592;2023-04-03T00:27:48;5.23;;;4.73;;
19414;SDS011;9843;48.882;12.592;2023-04-03T00:30:16;5.33;;;4.93;;
19414;SDS011;9843;48.882;12.592;2023-04-03T00:32:43;5.37;;;4.87;;
19414;SDS011;9843;48.882;12.592;2023-04-03T00:35:10;5.97;;;5.27;;
19414;SDS011;9843;48.882;12.592;2023-04-03T00:37:40;5.13;;;4.73;;
19414;SDS011;9843;48.882;12.592;2023-04-03T00:40:08;5.10;;;4.70;;
19414;SDS011;9843;48.882;12.592;2023-04-03T00:42:35;5.80;;;5.30;;
19414;SDS011;9843;48.882;12.592;2023-04-03T00:47:49;7.07;;;5.10;;
19414;SDS011;9843;48.882;12.592;2023-04-03T00:50:16;5.60;;;5.17;;
19414;SDS011;9843;48.882;12.592;2023-04-03T00:52:43;6.73;;;6.07;;
19414;SDS011;9843;48.882;12.592;2023-04-03T00:55:14;5.77;;;5.27;;
19414;SDS011;9843;48.882;12.592;2023-04-03T00:57:41;6.73;;;6.10;;
19414;SDS011;9843;48.882;12.592;2023-04-03T01:00:10;5.27;;;4.77;;
19414;SDS011;9843;48.882;12.592;2023-04-03T01:02:37;6.03;;;5.53;;
19414;SDS011;9843;48.882;12.592;2023-04-03T01:05:07;7.67;;;6.90;;
19414;SDS011;9843;48.882;12.592;2023-04-03T01:07:34;5.50;;;5.00;;
19414;SDS011;9843;48.882;12.592;2023-04-03T01:10:03;9.83;;;6.93;;
19414;SDS011;9843;48.882;12.592;2023-04-03T01:12:31;6.83;;;6.00;;
19414;SDS011;9843;48.882;12.592;2023-04-03T01:15:00;5.20;;;4.80;;
19414;SDS011;9843;48.882;12.592;2023-04-03T01:17:28;6.13;;;5.63;;
19414;SDS011;9843;48.882;12.592;2023-04-03T01:19:57;8.03;;;7.37;;
19414;SDS011;9843;48.882;12.592;2023-04-03T01:22:30;6.60;;;5.87;;
19414;SDS011;9843;48.882;12.592;2023-04-03T01:25:02;6.93;;;6.03;;
19414;SDS011;9843;48.882;12.592;2023-04-03T01:27:29;6.63;;;6.10;;
19414;SDS011;9843;48.882;12.592;2023-04-03T01:29:56;6.03;;;5.53;;
19414;SDS011;9843;48.882;12.592;2023-04-03T01:32:25;6.60;;;5.53;;
19414;SDS011;9843;48.882;12.592;2023-04-03T01:34:52;8.27;;;6.40;;
19414;SDS011;9843;48.882;12.592;2023-04-03T01:37:19;6.67;;;6.07;;
19414;SDS011;9843;48.882;12.592;2023-04-03T01:39:46;7.47;;;6.87;;
19414;SDS011;9843;48.882;12.592;2023-04-03T01:42:13;6.10;;;5.60;;
19414;SDS011;9843;48.882;12.592;2023-04-03T01:44:41;5.87;;;5.37;;
19414;SDS011;9843;48.882;12.592;2023-04-03T01:47:08;6.53;;;5.93;;
19414;SDS011;9843;48.882;12.592;2023-04-03T01:49:36;8.07;;;6.33;;
19414;SDS011;9843;48.882;12.592;2023-04-03T01:52:03;6.57;;;6.07;;
19414;SDS011;9843;48.882;12.592;2023-04-03T01:54:30;6.83;;;6.17;;
19414;SDS011;9843;48.882;12.592;2023-04-03T01:56:57;6.53;;;5.97;;
19414;SDS011;9843;48.882;12.592;2023-04-03T01:59:24;7.67;;;6.97;;
19414;SDS011;9843;48.882;12.592;2023-04-03T02:01:51;8.60;;;7.77;;
19414;SDS011;9843;48.882;12.592;2023-04-03T02:04:18;8.63;;;6.60;;
19414;SDS011;9843;48.882;12.592;2023-04-03T02:06:47;8.00;;;6.00;;
19414;SDS011;9843;48.882;12.592;2023-04-03T02:09:14;7.73;;;6.87;;
19414;SDS011;9843;48.882;12.592;2023-04-03T02:11:41;7.37;;;6.77;;
19414;SDS011;9843;48.882;12.592;2023-04-03T02:14:08;6.57;;;5.93;;
19414;SDS011;9843;48.882;12.592;2023-04-03T02:16:35;8.53;;;6.33;;
19414;SDS011;9843;48.882;12.592;2023-04-03T02:19:02;6.77;;;5.67;;
19414;SDS011;9843;48.882;12.592;2023-04-03T02:21:30;6.70;;;6.20;;
19414;SDS011;9843;48.882;12.592;2023-04-03T02:23:58;7.03;;;6.40;;
19414;SDS011;9843;48.882;12.592;2023-04-03T02:26:25;9.33;;;7.03;;
19414;SDS011;9843;48.882;12.592;2023-04-03T02:28:52;7.10;;;5.93;;
19414;SDS011;9843;48.882;12.592;2023-04-03T02:31:19;6.83;;;6.23;;
19414;SDS011;9843;48.882;12.592;2023-04-03T02:33:46;7.70;;;6.87;;
19414;SDS011;9843;48.882;12.592;2023-04-03T02:36:13;6.90;;;6.23;;
19414;SDS011;9843;48.882;12.592;2023-04-03T02:38:40;7.53;;;6.70;;
19414;SDS011;9843;48.882;12.592;2023-04-03T02:41:10;9.40;;;6.50;;
19414;SDS011;9843;48.882;12.592;2023-04-03T02:43:38;5.93;;;5.27;;
19414;SDS011;9843;48.882;12.592;2023-04-03T02:46:05;7.83;;;7.07;;
19414;SDS011;9843;48.882;12.592;2023-04-03T02:48:32;7.80;;;6.57;;
19414;SDS011;9843;48.882;12.592;2023-04-03T02:51:00;9.70;;;7.77;;
19414;SDS011;9843;48.882;12.592;2023-04-03T02:53:27;7.50;;;6.90;;
19414;SDS011;9843;48.882;12.592;2023-04-03T02:55:54;7.00;;;6.50;;
19414;SDS011;9843;48.882;12.592;2023-04-03T02:58:22;6.60;;;5.90;;
19414;SDS011;9843;48.882;12.592;2023-04-03T03:00:49;9.27;;;8.20;;
19414;SDS011;9843;48.882;12.592;2023-04-03T03:03:16;7.17;;;6.57;;
19414;SDS011;9843;48.882;12.592;2023-04-03T03:05:43;8.97;;;7.97;;
19414;SDS011;9843;48.882;12.592;2023-04-03T03:08:10;7.80;;;7.00;;
19414;SDS011;9843;48.882;12.592;2023-04-03T03:10:37;12.23;;;7.43;;
19414;SDS011;9843;48.882;12.592;2023-04-03T03:13:04;7.43;;;6.83;;
19414;SDS011;9843;48.882;12.592;2023-04-03T03:15:33;7.93;;;7.13;;
19414;SDS011;9843;48.882;12.592;2023-04-03T03:18:00;7.27;;;6.73;;
19414;SDS011;9843;48.882;12.592;2023-04-03T03:20:27;7.17;;;6.50;;
19414;SDS011;9843;48.882;12.592;2023-04-03T03:22:54;7.77;;;7.03;;
19414;SDS011;9843;48.882;12.592;2023-04-03T03:25:21;9.37;;;7.27;;
19414;SDS011;9843;48.882;12.592;2023-04-03T03:27:48;7.10;;;6.50;;
19414;SDS011;9843;48.882;12.592;2023-04-03T03:30:15;7.50;;;6.80;;
19414;SDS011;9843;48.882;12.592;2023-04-03T03:32:43;8.20;;;7.40;;
19414;SDS011;9843;48.882;12.592;2023-04-03T03:35:10;7.80;;;7.20;;
19414;SDS011;9843;48.882;12.592;2023-04-03T03:37:37;8.87;;;7.97;;
19414;SDS011;9843;48.882;12.592;2023-04-03T03:40:05;11.03;;;8.53;;
19414;SDS011;9843;48.882;12.592;2023-04-03T03:42:33;17.83;;;9.03;;
19414;SDS011;9843;48.882;12.592;2023-04-03T03:45:00;12.83;;;7.77;;
19414;SDS011;9843;48.882;12.592;2023-04-03T03:47:27;11.17;;;9.93;;
19414;SDS011;9843;48.882;12.592;2023-04-03T03:49:55;8.17;;;7.37;;
19414;SDS011;9843;48.882;12.592;2023-04-03T03:52:22;11.03;;;7.30;;
19414;SDS011;9843;48.882;12.592;2023-04-03T03:54:49;8.13;;;7.33;;
19414;SDS011;9843;48.882;12.592;2023-04-03T03:57:17;9.20;;;8.30;;
19414;SDS011;9843;48.882;12.592;2023-04-03T03:59:44;10.47;;;9.30;;
19414;SDS011;9843;48.882;12.592;2023-04-03T04:02:12;9.03;;;7.50;;
19414;SDS011;9843;48.882;12.592;2023-04-03T04:04:39;11.33;;;9.13;;
19414;SDS011;9843;48.882;12.592;2023-04-03T04:07:07;13.27;;;8.90;;
19414;SDS011;9843;48.882;12.592;2023-04-03T04:09:34;8.27;;;7.57;;
19414;SDS011;9843;48.882;12.592;2023-04-03T04:12:01;9.53;;;7.90;;
19414;SDS011;9843;48.882;12.592;2023-04-03T04:14:29;8.43;;;7.17;;
19414;SDS011;9843;48.882;12.592;2023-04-03T04:16:56;8.50;;;7.73;;
19414;SDS011;9843;48.882;12.592;2023-04-03T04:19:23;9.50;;;8.23;;
19414;SDS011;9843;48.882;12.592;2023-04-03T04:21:50;10.13;;;7.67;;
19414;SDS011;9843;48.882;12.592;2023-04-03T04:24:18;11.40;;;9.87;;
19414;SDS011;9843;48.882;12.592;2023-04-03T04:26:45;8.60;;;7.70;;
19414;SDS011;9843;48.882;12.592;2023-04-03T04:29:12;8.40;;;7.17;;
19414;SDS011;9843;48.882;12.592;2023-04-03T04:31:39;9.83;;;8.43;;
19414;SDS011;9843;48.882;12.592;2023-04-03T04:34:06;10.60;;;9.50;;
19414;SDS011;9843;48.882;12.592;2023-04-03T04:36:33;9.67;;;8.70;;
19414;SDS011;9843;48.882;12.592;2023-04-03T04:39:00;8.77;;;7.87;;
19414;SDS011;9843;48.882;12.592;2023-04-03T04:41:29;9.00;;;6.83;;
19414;SDS011;9843;48.882;12.592;2023-04-03T04:43:56;9.37;;;8.40;;
19414;SDS011;9843;48.882;12.592;2023-04-03T04:46:23;8.60;;;7.83;;
19414;SDS011;9843;48.882;12.592;2023-04-03T04:48:50;12.57;;;9.23;;
19414;SDS011;9843;48.882;12.592;2023-04-03T04:51:17;12.57;;;8.83;;
19414;SDS011;9843;48.882;12.592;2023-04-03T04:53:44;8.00;;;7.03;;
19414;SDS011;9843;48.882;12.592;2023-04-03T04:56:11;10.33;;;9.37;;
19414;SDS011;9843;48.882;12.592;2023-04-03T04:58:40;9.37;;;7.07;;
19414;SDS011;9843;48.882;12.592;2023-04-03T05:01:07;8.97;;;6.67;;
19414;SDS011;9843;48.882;12.592;2023-04-03T05:03:35;8.73;;;7.80;;
19414;SDS011;9843;48.882;12.592;2023-04-03T05:06:02;8.50;;;7.70;;
19414;SDS011;9843;48.882;12.592;2023-04-03T05:08:29;10.67;;;6.83;;
19414;SDS011;9843;48.882;12.592;2023-04-03T05:10:56;12.10;;;7.67;;
19414;SDS011;9843;48.882;12.592;2023-04-03T05:13:23;16.20;;;8.60;;
19414;SDS011;9843;48.882;12.592;2023-04-03T05:15:52;8.03;;;7.23;;
19414;SDS011;9843;48.882;12.592;2023-04-03T05:18:19;8.33;;;7.53;;
19414;SDS011;9843;48.882;12.592;2023-04-03T05:20:47;10.10;;;7.53;;
19414;SDS011;9843;48.882;12.592;2023-04-03T05:23:15;8.10;;;7.50;;
19414;SDS011;9843;48.882;12.592;2023-04-03T05:25:42;9.20;;;7.87;;
19414;SDS011;9843;48.882;12.592;2023-04-03T05:28:10;9.23;;;7.33;;
19414;SDS011;9843;48.882;12.592;2023-04-03T05:30:37;7.10;;;6.40;;
19414;SDS011;9843;48.882;12.592;2023-04-03T05:33:05;8.17;;;7.43;;
19414;SDS011;9843;48.882;12.592;2023-04-03T05:35:32;8.20;;;7.40;;
19414;SDS011;9843;48.882;12.592;2023-04-03T05:37:59;7.83;;;7.13;;
19414;SDS011;9843;48.882;12.592;2023-04-03T05:40:26;8.17;;;7.33;;
19414;SDS011;9843;48.882;12.592;2023-04-03T05:42:53;7.37;;;6.77;;
19414;SDS011;9843;48.882;12.592;2023-04-03T05:45:20;8.57;;;7.67;;
19414;SDS011;9843;48.882;12.592;2023-04-03T05:47:47;14.07;;;8.03;;
19414;SDS011;9843;48.882;12.592;2023-04-03T05:50:16;9.53;;;6.90;;
19414;SDS011;9843;48.882;12.592;2023-04-03T05:52:44;8.63;;;7.30;;
19414;SDS011;9843;48.882;12.592;2023-04-03T05:55:12;8.13;;;7.43;;
19414;SDS011;9843;48.882;12.592;2023-04-03T05:57:39;10.83;;;6.27;;
19414;SDS011;9843;48.882;12.592;2023-04-03T06:00:06;7.93;;;6.67;;
19414;SDS011;9843;48.882;12.592;2023-04-03T06:02:34;8.70;;;7.10;;
19414;SDS011;9843;48.882;12.592;2023-04-03T06:05:01;7.27;;;6.00;;
19414;SDS011;9843;48.882;12.592;2023-04-03T06:07:30;9.00;;;6.77;;
19414;SDS011;9843;48.882;12.592;2023-04-03T06:09:57;8.97;;;6.17;;
19414;SDS011;9843;48.882;12.592;2023-04-03T06:12:25;7.57;;;6.53;;
19414;SDS011;9843;48.882;12.592;2023-04-03T06:14:53;7.37;;;5.77;;
19414;SDS011;9843;48.882;12.592;2023-04-03T06:17:20;9.33;;;4.80;;
19414;SDS011;9843;48.882;12.592;2023-04-03T06:19:48;8.07;;;5.77;;
19414;SDS011;9843;48.882;12.592;2023-04-03T06:22:16;9.03;;;7.23;;
19414;SDS011;9843;48.882;12.592;2023-04-03T06:24:44;18.97;;;7.07;;
19414;SDS011;9843;48.882;12.592;2023-04-03T06:27:11;5.97;;;5.37;;
19414;SDS011;9843;48.882;12.592;2023-04-03T06:29:38;5.70;;;5.20;;
19414;SDS011;9843;48.882;12.592;2023-04-03T06:32:05;6.27;;;5.00;;
19414;SDS011;9843;48.882;12.592;2023-04-03T06:34:32;7.03;;;5.87;;
19414;SDS011;9843;48.882;12.592;2023-04-03T06:37:00;7.50;;;4.90;;
19414;SDS011;9843;48.882;12.592;2023-04-03T06:39:27;9.13;;;5.03;;
19414;SDS011;9843;48.882;12.592;2023-04-03T06:41:55;6.17;;;5.50;;
19414;SDS011;9843;48.882;12.592;2023-04-03T06:44:22;4.87;;;4.47;;
19414;SDS011;9843;48.882;12.592;2023-04-03T06:46:49;4.50;;;4.10;;
19414;SDS011;9843;48.882;12.592;2023-04-03T06:49:16;12.20;;;3.97;;
19414;SDS011;9843;48.882;12.592;2023-04-03T06:51:43;8.13;;;4.80;;
19414;SDS011;9843;48.882;12.592;2023-04-03T06:54:10;6.70;;;5.47;;
19414;SDS011;9843;48.882;12.592;2023-04-03T06:56:39;4.50;;;4.10;;
19414;SDS011;9843;48.882;12.592;2023-04-03T06:59:09;6.23;;;4.57;;
19414;SDS011;9843;48.882;12.592;2023-04-03T07:01:36;7.73;;;4.60;;
19414;SDS011;9843;48.882;12.592;2023-04-03T07:04:03;4.20;;;3.90;;
19414;SDS011;9843;48.882;12.592;2023-04-03T07:06:30;4.47;;;4.07;;
19414;SDS011;9843;48.882;12.592;2023-04-03T07:08:58;4.37;;;3.63;;
19414;SDS011;9843;48.882;12.592;2023-04-03T07:11:25;5.27;;;4.53;;
19414;SDS011;9843;48.882;12.592;2023-04-03T07:13:53;5.57;;;5.07;;
19414;SDS011;9843;48.882;12.592;2023-04-03T07:16:22;10.40;;;4.87;;
19414;SDS011;9843;48.882;12.592;2023-04-03T07:18:50;6.47;;;4.90;;
19414;SDS011;9843;48.882;12.592;2023-04-03T07:21:17;4.93;;;4.53;;
19414;SDS011;9843;48.882;12.592;2023-04-03T07:23:44;4.00;;;3.60;;
19414;SDS011;9843;48.882;12.592;2023-04-03T07:26:11;6.00;;;4.57;;
19414;SDS011;9843;48.882;12.592;2023-04-03T07:28:38;5.10;;;4.77;;
19414;SDS011;9843;48.882;12.592;2023-04-03T07:31:07;5.50;;;4.80;;
19414;SDS011;9843;48.882;12.592;2023-04-03T07:33:37;3.87;;;3.60;;
19414;SDS011;9843;48.882;12.592;2023-04-03T07:36:05;6.73;;;4.73;;
19414;SDS011;9843;48.882;12.592;2023-04-03T07:38:33;5.33;;;3.90;;
19414;SDS011;9843;48.882;12.592;2023-04-03T07:41:00;6.73;;;3.93;;
19414;SDS011;9843;48.882;12.592;2023-04-03T07:43:27;5.90;;;4.30;;
19414;SDS011;9843;48.882;12.592;2023-04-03T07:45:54;4.50;;;4.10;;
19414;SDS011;9843;48.882;12.592;2023-04-03T07:48:21;5.17;;;4.20;;
19414;SDS011;9843;48.882;12.592;2023-04-03T07:50:50;3.87;;;3.57;;
19414;SDS011;9843;48.882;12.592;2023-04-03T07:53:17;4.17;;;3.77;;
19414;SDS011;9843;48.882;12.592;2023-04-03T07:55:45;3.53;;;3.23;;
19414;SDS011;9843;48.882;12.592;2023-04-03T07:58:13;4.00;;;3.57;;
19414;SDS011;9843;48.882;12.592;2023-04-03T08:00:40;4.37;;;3.97;;
19414;SDS011;9843;48.882;12.592;2023-04-03T08:03:09;3.37;;;3.10;;
19414;SDS011;9843;48.882;12.592;2023-04-03T08:05:36;3.87;;;3.47;;
19414;SDS011;9843;48.882;12.592;2023-04-03T08:08:05;4.23;;;3.13;;
19414;SDS011;9843;48.882;12.592;2023-04-03T08:10:32;6.77;;;3.33;;
19414;SDS011;9843;48.882;12.592;2023-04-03T08:13:00;3.33;;;3.03;;
19414;SDS011;9843;48.882;12.592;2023-04-03T08:15:27;6.80;;;3.50;;
19414;SDS011;9843;48.882;12.592;2023-04-03T08:17:54;6.90;;;2.83;;
19414;SDS011;9843;48.882;12.592;2023-04-03T08:20:22;4.67;;;2.70;;
19414;SDS011;9843;48.882;12.592;2023-04-03T08:22:49;6.10;;;3.33;;
19414;SDS011;9843;48.882;12.592;2023-04-03T08:25:17;5.23;;;2.63;;
19414;SDS011;9843;48.882;12.592;2023-04-03T08:27:44;4.30;;;1.90;;
19414;SDS011;9843;48.882;12.592;2023-04-03T08:30:12;4.50;;;2.77;;
19414;SDS011;9843;48.882;12.592;2023-04-03T08:32:39;8.10;;;4.03;;
19414;SDS011;9843;48.882;12.592;2023-04-03T08:35:08;3.80;;;2.70;;
19414;SDS011;9843;48.882;12.592;2023-04-03T08:37:35;2.47;;;2.00;;
19414;SDS011;9843;48.882;12.592;2023-04-03T08:40:03;2.10;;;1.90;;
19414;SDS011;9843;48.882;12.592;2023-04-03T08:42:36;3.63;;;2.10;;
19414;SDS011;9843;48.882;12.592;2023-04-03T08:45:06;5.00;;;2.50;;
19414;SDS011;9843;48.882;12.592;2023-04-03T08:47:37;2.07;;;1.87;;
19414;SDS011;9843;48.882;12.592;2023-04-03T08:50:06;4.03;;;2.27;;
19414;SDS011;9843;48.882;12.592;2023-04-03T08:52:34;1.87;;;1.70;;
19414;SDS011;9843;48.882;12.592;2023-04-03T08:55:03;2.07;;;1.77;;
19414;SDS011;9843;48.882;12.592;2023-04-03T08:57:33;6.97;;;2.70;;
19414;SDS011;9843;48.882;12.592;2023-04-03T09:00:03;3.70;;;2.17;;
19414;SDS011;9843;48.882;12.592;2023-04-03T09:02:33;2.43;;;2.00;;
19414;SDS011;9843;48.882;12.592;2023-04-03T09:05:01;6.00;;;2.07;;
19414;SDS011;9843;48.882;12.592;2023-04-03T09:07:31;3.60;;;1.80;;
19414;SDS011;9843;48.882;12.592;2023-04-03T09:10:00;3.73;;;2.07;;
19414;SDS011;9843;48.882;12.592;2023-04-03T09:12:29;1.70;;;1.60;;
19414;SDS011;9843;48.882;12.592;2023-04-03T09:15:00;3.63;;;1.97;;
19414;SDS011;9843;48.882;12.592;2023-04-03T09:17:35;4.40;;;2.03;;
19414;SDS011;9843;48.882;12.592;2023-04-03T09:20:07;2.07;;;1.70;;
19414;SDS011;9843;48.882;12.592;2023-04-03T09:22:37;3.17;;;1.67;;
19414;SDS011;9843;48.882;12.592;2023-04-03T09:25:08;1.27;;;1.17;;
19414;SDS011;9843;48.882;12.592;2023-04-03T09:27:37;2.53;;;1.57;;
19414;SDS011;9843;48.882;12.592;2023-04-03T09:30:05;4.80;;;2.50;;
19414;SDS011;9843;48.882;12.592;2023-04-03T09:32:33;2.60;;;1.40;;
19414;SDS011;9843;48.882;12.592;2023-04-03T09:35:03;3.43;;;2.20;;
19414;SDS011;9843;48.882;12.592;2023-04-03T09:37:36;5.50;;;1.97;;
19414;SDS011;9843;48.882;12.592;2023-04-03T09:40:04;2.40;;;1.50;;
19414;SDS011;9843;48.882;12.592;2023-04-03T09:42:32;3.33;;;2.00;;
19414;SDS011;9843;48.882;12.592;2023-04-03T09:45:02;3.20;;;1.50;;
19414;SDS011;9843;48.882;12.592;2023-04-03T09:47:30;2.80;;;1.77;;
19414;SDS011;9843;48.882;12.592;2023-04-03T09:50:19;2.40;;;2.03;;
19414;SDS011;9843;48.882;12.592;2023-04-03T09:52:47;2.87;;;1.37;;
19414;SDS011;9843;48.882;12.592;2023-04-03T09:55:17;1.60;;;1.13;;
19414;SDS011;9843;48.882;12.592;2023-04-03T09:57:46;2.37;;;1.20;;
19414;SDS011;9843;48.882;12.592;2023-04-03T10:00:19;1.30;;;1.20;;
19414;SDS011;9843;48.882;12.592;2023-04-03T10:02:49;3.80;;;1.40;;
19414;SDS011;9843;48.882;12.592;2023-04-03T10:05:30;1.40;;;1.23;;
19414;SDS011;9843;48.882;12.592;2023-04-03T10:08:08;1.27;;;0.73;;
19414;SDS011;9843;48.882;12.592;2023-04-03T10:10:35;2.10;;;1.20;;
19414;SDS011;9843;48.882;12.592;2023-04-03T10:13:04;4.73;;;1.33;;
19414;SDS011;9843;48.882;12.592;2023-04-03T10:15:32;2.03;;;1.20;;
19414;SDS011;9843;48.882;12.592;2023-04-03T10:18:03;1.90;;;1.07;;
19414;SDS011;9843;48.882;12.592;2023-04-03T10:20:34;1.80;;;1.00;;
19414;SDS011;9843;48.882;12.592;2023-04-03T10:23:12;2.90;;;1.33;;
19414;SDS011;9843;48.882;12.592;2023-04-03T10:25:42;4.13;;;1.17;;
19414;SDS011;9843;48.882;12.592;2023-04-03T10:28:11;1.20;;;0.93;;
19414;SDS011;9843;48.882;12.592;2023-04-03T10:30:46;1.73;;;1.10;;
19414;SDS011;9843;48.882;12.592;2023-04-03T10:33:20;3.87;;;2.13;;
19414;SDS011;9843;48.882;12.592;2023-04-03T10:35:51;3.97;;;1.20;;
19414;SDS011;9843;48.882;12.592;2023-04-03T10:38:22;2.20;;;1.20;;
19414;SDS011;9843;48.882;12.592;2023-04-03T10:40:52;2.40;;;1.43;;
19414;SDS011;9843;48.882;12.592;2023-04-03T10:43:25;1.13;;;0.70;;
19414;SDS011;9843;48.882;12.592;2023-04-03T10:45:55;4.87;;;1.27;;
19414;SDS011;9843;48.882;12.592;2023-04-03T10:48:27;4.97;;;1.23;;
19414;SDS011;9843;48.882;12.592;2023-04-03T10:51:04;2.17;;;1.30;;
19414;SDS011;9843;48.882;12.592;2023-04-03T10:53:35;2.67;;;1.00;;
19414;SDS011;9843;48.882;12.592;2023-04-03T10:56:07;2.83;;;0.75;;
19414;SDS011;9843;48.882;12.592;2023-04-03T10:58:38;2.53;;;1.05;;
19414;SDS011;9843;48.882;12.592;2023-04-03T11:01:06;4.72;;;1.45;;
19414;SDS011;9843;48.882;12.592;2023-04-03T11:06:05;1.10;;;0.88;;
19414;SDS011;9843;48.882;12.592;2023-04-03T11:08:35;1.88;;;0.85;;
19414;SDS011;9843;48.882;12.592;2023-04-03T11:11:05;2.22;;;1.13;;
19414;SDS011;9843;48.882;12.592;2023-04-03T11:13:34;1.93;;;1.50;;
19414;SDS011;9843;48.882;12.592;2023-04-03T11:16:03;1.70;;;1.50;;
19414;SDS011;9843;48.882;12.592;2023-04-03T11:18:32;4.33;;;1.87;;
19414;SDS011;9843;48.882;12.592;2023-04-03T11:21:04;1.93;;;1.40;;
19414;SDS011;9843;48.882;12.592;2023-04-03T11:23:34;5.10;;;1.53;;
19414;SDS011;9843;48.882;12.592;2023-04-03T11:26:07;1.50;;;1.23;;
19414;SDS011;9843;48.882;12.592;2023-04-03T11:28:35;2.27;;;0.90;;
19414;SDS011;9843;48.882;12.592;2023-04-03T11:31:06;2.67;;;1.33;;
19414;SDS011;9843;48.882;12.592;2023-04-03T11:33:41;4.90;;;2.67;;
19414;SDS011;9843;48.882;12.592;2023-04-03T11:36:13;12.10;;;8.80;;
19414;SDS011;9843;48.882;12.592;2023-04-03T11:38:45;7.80;;;5.17;;
19414;SDS011;9843;48.882;12.592;2023-04-03T11:41:14;4.13;;;1.63;;
19414;SDS011;9843;48.882;12.592;2023-04-03T11:43:42;2.10;;;1.40;;
19414;SDS011;9843;48.882;12.592;2023-04-03T11:46:10;2.87;;;1.63;;
19414;SDS011;9843;48.882;12.592;2023-04-03T11:48:45;3.57;;;1.27;;
19414;SDS011;9843;48.882;12.592;2023-04-03T11:54:05;4.07;;;1.80;;
19414;SDS011;9843;48.882;12.592;2023-04-03T11:56:52;1.87;;;1.57;;
19414;SDS011;9843;48.882;12.592;2023-04-03T11:59:23;2.27;;;1.40;;
19414;SDS011;9843;48.882;12.592;2023-04-03T12:01:52;3.97;;;2.13;;
19414;SDS011;9843;48.882;12.592;2023-04-03T12:04:21;4.77;;;1.40;;
19414;SDS011;9843;48.882;12.592;2023-04-03T12:09:52;4.77;;;1.63;;
19414;SDS011;9843;48.882;12.592;2023-04-03T12:12:23;3.27;;;1.40;;
19414;SDS011;9843;48.882;12.592;2023-04-03T12:14:51;1.63;;;1.17;;
19414;SDS011;9843;48.882;12.592;2023-04-03T12:17:20;1.53;;;1.10;;
19414;SDS011;9843;48.882;12.592;2023-04-03T12:19:49;15.10;;;1.63;;
19414;SDS011;9843;48.882;12.592;2023-04-03T12:22:17;2.70;;;1.27;;
19414;SDS011;9843;48.882;12.592;2023-04-03T12:24:47;2.30;;;1.63;;
19414;SDS011;9843;48.882;12.592;2023-04-03T12:27:26;3.37;;;1.70;;
19414;SDS011;9843;48.882;12.592;2023-04-03T12:29:55;2.17;;;1.70;;
19414;SDS011;9843;48.882;12.592;2023-04-03T12:32:25;3.50;;;1.57;;
19414;SDS011;9843;48.882;12.592;2023-04-03T12:34:56;4.17;;;1.60;;
19414;SDS011;9843;48.882;12.592;2023-04-03T12:37:41;2.65;;;1.80;;
19414;SDS011;9843;48.882;12.592;2023-04-03T12:40:16;1.55;;;1.45;;
19414;SDS011;9843;48.882;12.592;2023-04-03T12:42:55;2.45;;;1.73;;
19414;SDS011;9843;48.882;12.592;2023-04-03T12:45:24;4.80;;;1.45;;
19414;SDS011;9843;48.882;12.592;2023-04-03T12:47:53;2.50;;;1.90;;
19414;SDS011;9843;48.882;12.592;2023-04-03T12:50:21;1.97;;;1.30;;
19414;SDS011;9843;48.882;12.592;2023-04-03T12:52:51;1.93;;;1.37;;
19414;SDS011;9843;48.882;12.592;2023-04-03T12:55:20;2.63;;;2.20;;
19414;SDS011;9843;48.882;12.592;2023-04-03T12:57:48;3.80;;;2.37;;
19414;SDS011;9843;48.882;12.592;2023-04-03T13:00:18;2.90;;;1.93;;
19414;SDS011;9843;48.882;12.592;2023-04-03T13:02:46;8.50;;;2.00;;
19414;SDS011;9843;48.882;12.592;2023-04-03T13:05:13;2.33;;;1.93;;
19414;SDS011;9843;48.882;12.592;2023-04-03T13:07:41;3.00;;;2.23;;
19414;SDS011;9843;48.882;12.592;2023-04-03T13:10:13;2.87;;;2.50;;
19414;SDS011;9843;48.882;12.592;2023-04-03T13:12:47;4.30;;;2.87;;
19414;SDS011;9843;48.882;12.592;2023-04-03T13:15:15;5.20;;;2.20;;
19414;SDS011;9843;48.882;12.592;2023-04-03T13:17:43;3.13;;;2.23;;
19414;SDS011;9843;48.882;12.592;2023-04-03T13:20:11;2.90;;;2.60;;
19414;SDS011;9843;48.882;12.592;2023-04-03T13:22:39;3.07;;;2.47;;
19414;SDS011;9843;48.882;12.592;2023-04-03T13:25:09;2.63;;;1.87;;
19414;SDS011;9843;48.882;12.592;2023-04-03T13:27:38;3.43;;;2.13;;
19414;SDS011;9843;48.882;12.592;2023-04-03T13:30:18;3.93;;;2.20;;
19414;SDS011;9843;48.882;12.592;2023-04-03T13:32:46;3.73;;;1.80;;
19414;SDS011;9843;48.882;12.592;2023-04-03T13:35:30;4.83;;;1.87;;
19414;SDS011;9843;48.882;12.592;2023-04-03T13:37:58;6.40;;;2.50;;
19414;SDS011;9843;48.882;12.592;2023-04-03T13:40:26;3.03;;;1.63;;
19414;SDS011;9843;48.882;12.592;2023-04-03T13:43:00;1.93;;;1.73;;
19414;SDS011;9843;48.882;12.592;2023-04-03T13:45:29;2.70;;;2.50;;
19414;SDS011;9843;48.882;12.592;2023-04-03T13:48:07;2.33;;;1.70;;
19414;SDS011;9843;48.882;12.592;2023-04-03T13:50:48;7.10;;;2.20;;
19414;SDS011;9843;48.882;12.592;2023-04-03T13:53:17;4.67;;;2.27;;
19414;SDS011;9843;48.882;12.592;2023-04-03T13:55:52;3.10;;;2.27;;
19414;SDS011;9843;48.882;12.592;2023-04-03T13:58:21;4.67;;;3.17;;
19414;SDS011;9843;48.882;12.592;2023-04-03T14:00:51;5.07;;;3.87;;
19414;SDS011;9843;48.882;12.592;2023-04-03T14:03:19;5.77;;;3.60;;
19414;SDS011;9843;48.882;12.592;2023-04-03T14:05:47;2.53;;;2.30;;
19414;SDS011;9843;48.882;12.592;2023-04-03T14:08:15;3.40;;;2.87;;
19414;SDS011;9843;48.882;12.592;2023-04-03T14:10:42;4.30;;;2.80;;
19414;SDS011;9843;48.882;12.592;2023-04-03T14:13:11;3.93;;;3.07;;
19414;SDS011;9843;48.882;12.592;2023-04-03T14:15:38;3.70;;;3.30;;
19414;SDS011;9843;48.882;12.592;2023-04-03T14:18:09;4.10;;;2.30;;
19414;SDS011;9843;48.882;12.592;2023-04-03T14:20:37;6.63;;;2.50;;
19414;SDS011;9843;48.882;12.592;2023-04-03T14:23:04;5.33;;;2.23;;
19414;SDS011;9843;48.882;12.592;2023-04-03T14:25:31;3.27;;;2.40;;
19414;SDS011;9843;48.882;12.592;2023-04-03T14:27:59;3.40;;;2.00;;
19414;SDS011;9843;48.882;12.592;2023-04-03T14:30:27;2.77;;;2.57;;
19414;SDS011;9843;48.882;12.592;2023-04-03T14:32:54;2.90;;;2.20;;
19414;SDS011;9843;48.882;12.592;2023-04-03T14:35:23;6.93;;;3.10;;
19414;SDS011;9843;48.882;12.592;2023-04-03T14:37:50;2.67;;;2.50;;
19414;SDS011;9843;48.882;12.592;2023-04-03T14:40:20;4.90;;;2.47;;
19414;SDS011;9843;48.882;12.592;2023-04-03T14:42:47;2.67;;;2.47;;
19414;SDS011;9843;48.882;12.592;2023-04-03T14:45:14;3.07;;;2.70;;
19414;SDS011;9843;48.882;12.592;2023-04-03T14:47:44;2.77;;;2.57;;
19414;SDS011;9843;48.882;12.592;2023-04-03T14:50:14;7.00;;;2.67;;
19414;SDS011;9843;48.882;12.592;2023-04-03T14:52:43;6.70;;;3.63;;
19414;SDS011;9843;48.882;12.592;2023-04-03T14:55:11;3.80;;;3.40;;
19414;SDS011;9843;48.882;12.592;2023-04-03T14:57:39;4.93;;;3.60;;
19414;SDS011;9843;48.882;12.592;2023-04-03T15:00:07;6.80;;;4.83;;
19414;SDS011;9843;48.882;12.592;2023-04-03T15:02:35;5.17;;;4.67;;
19414;SDS011;9843;48.882;12.592;2023-04-03T15:05:03;4.77;;;4.07;;